createdAt,value
2022-08-19T00:01:30.800Z,2.83
2022-08-19T00:04:02.772Z,2.80
2022-08-19T00:06:31.686Z,3.00
2022-08-19T00:09:01.049Z,3.08
2022-08-19T00:11:28.609Z,2.50
2022-08-19T00:13:57.509Z,3.10
2022-08-19T00:16:26.542Z,2.70
2022-08-19T00:18:54.488Z,2.78
2022-08-19T00:21:21.183Z,2.70
2022-08-19T00:23:47.746Z,2.55
2022-08-19T00:26:14.564Z,2.63
2022-08-19T00:28:41.083Z,2.40
2022-08-19T00:31:08.929Z,2.47
2022-08-19T00:33:35.981Z,2.35
2022-08-19T00:36:06.436Z,2.50
2022-08-19T00:38:37.607Z,2.38
2022-08-19T00:41:06.216Z,2.05
2022-08-19T00:43:32.824Z,2.00
2022-08-19T00:45:59.701Z,1.83
2022-08-19T00:48:26.359Z,2.20
2022-08-19T00:50:54.270Z,2.10
2022-08-19T00:53:24.157Z,1.80
2022-08-19T00:55:54.150Z,1.98
2022-08-19T00:58:23.166Z,1.90
2022-08-19T01:00:49.808Z,1.67
2022-08-19T01:03:19.568Z,1.80
2022-08-19T01:05:48.507Z,1.70
2022-08-19T01:08:16.625Z,1.73
2022-08-19T01:10:48.063Z,2.00
2022-08-19T01:13:16.480Z,1.80
2022-08-19T01:15:49.905Z,1.70
2022-08-19T01:18:18.768Z,2.25
2022-08-19T01:20:46.295Z,1.92
2022-08-19T01:23:13.970Z,2.10
2022-08-19T01:25:48.234Z,2.10
2022-08-19T01:28:37.174Z,1.77
2022-08-19T01:31:26.743Z,2.05
2022-08-19T01:33:56.965Z,2.17
2022-08-19T01:36:26.987Z,2.10
2022-08-19T01:38:54.705Z,2.25
2022-08-19T01:41:22.000Z,2.00
2022-08-19T01:44:12.347Z,2.35
2022-08-19T01:46:35.086Z,2.33
2022-08-19T01:49:03.188Z,2.50
2022-08-19T01:51:29.638Z,2.50
2022-08-19T01:54:05.146Z,2.67
2022-08-19T01:56:31.609Z,3.10
2022-08-19T01:59:02.634Z,2.83
2022-08-19T02:01:33.537Z,2.88
2022-08-19T02:04:01.710Z,2.70
2022-08-19T02:06:29.492Z,2.88
2022-08-19T02:08:57.418Z,2.65
2022-08-19T02:11:28.522Z,3.17
2022-08-19T02:13:55.725Z,2.65
2022-08-19T02:16:23.036Z,2.83
2022-08-19T02:18:49.752Z,2.90
2022-08-19T02:21:17.523Z,3.47
2022-08-19T02:23:44.215Z,3.90
2022-08-19T02:26:11.226Z,3.13
2022-08-19T02:28:37.781Z,3.38
2022-08-19T02:31:10.030Z,3.42
2022-08-19T02:33:36.547Z,3.13
2022-08-19T02:36:06.268Z,3.15
2022-08-19T02:38:33.405Z,2.70
2022-08-19T02:41:04.749Z,3.10
2022-08-19T02:43:34.378Z,3.40
2022-08-19T02:46:01.979Z,2.55
2022-08-19T02:48:28.666Z,2.60
2022-08-19T02:50:57.789Z,2.58
2022-08-19T02:53:28.054Z,2.70
2022-08-19T02:55:54.987Z,3.60
2022-08-19T02:58:22.731Z,3.03
2022-08-19T03:00:53.763Z,3.40
2022-08-19T03:03:20.858Z,3.70
2022-08-19T03:05:55.667Z,3.17
2022-08-19T03:08:25.183Z,3.50
2022-08-19T03:10:53.052Z,3.50
2022-08-19T03:13:19.538Z,3.40
2022-08-19T03:15:48.993Z,3.63
2022-08-19T03:18:17.979Z,3.53
2022-08-19T03:20:47.078Z,3.65
2022-08-19T03:23:14.265Z,3.38
2022-08-19T03:25:44.122Z,3.65
2022-08-19T03:28:15.624Z,4.13
2022-08-19T03:30:55.717Z,3.50
2022-08-19T03:33:27.592Z,3.00
2022-08-19T03:36:12.061Z,3.63
2022-08-19T03:41:14.123Z,2.55
2022-08-19T03:43:41.584Z,2.55
2022-08-19T03:46:14.346Z,2.72
2022-08-19T03:48:42.250Z,2.40
2022-08-19T03:51:16.224Z,2.78
2022-08-19T03:53:42.708Z,2.72
2022-08-19T03:56:10.758Z,2.45
2022-08-19T03:58:38.582Z,2.40
2022-08-19T04:01:09.556Z,2.90
2022-08-19T04:03:37.028Z,2.63
2022-08-19T04:06:27.821Z,2.53
2022-08-19T04:08:55.833Z,2.70
2022-08-19T04:11:43.211Z,2.50
2022-08-19T04:14:13.230Z,2.03
2022-08-19T04:16:39.749Z,2.45
2022-08-19T04:19:07.374Z,2.50
2022-08-19T04:21:34.397Z,2.20
2022-08-19T04:24:01.835Z,2.90
2022-08-19T04:26:35.065Z,2.63
2022-08-19T04:29:26.015Z,2.45
2022-08-19T04:31:54.791Z,2.47
2022-08-19T04:34:23.526Z,2.92
2022-08-19T04:36:54.191Z,2.53
2022-08-19T04:39:48.480Z,2.88
2022-08-19T04:42:35.168Z,3.10
2022-08-19T04:45:03.541Z,2.70
2022-08-19T04:47:47.740Z,3.13
2022-08-19T04:50:19.927Z,3.10
2022-08-19T04:52:46.998Z,2.97
2022-08-19T04:55:14.688Z,3.05
2022-08-19T04:57:41.534Z,2.83
2022-08-19T05:00:11.578Z,2.60
2022-08-19T05:02:39.050Z,2.92
2022-08-19T05:05:07.347Z,3.08
2022-08-19T05:07:33.913Z,2.83
2022-08-19T05:10:00.457Z,3.10
2022-08-19T05:12:29.223Z,2.97
2022-08-19T05:14:58.006Z,2.88
2022-08-19T05:17:28.759Z,3.38
2022-08-19T05:20:15.808Z,3.25
2022-08-19T05:22:44.600Z,3.47
2022-08-19T05:25:15.784Z,2.92
2022-08-19T05:27:43.525Z,3.80
2022-08-19T05:30:11.586Z,3.22
2022-08-19T05:32:38.641Z,3.38
2022-08-19T05:35:06.492Z,3.40
2022-08-19T05:37:32.989Z,3.47
2022-08-19T05:39:59.542Z,3.25
2022-08-19T05:42:27.427Z,3.28
2022-08-19T05:44:54.246Z,3.38
2022-08-19T05:47:21.398Z,3.42
2022-08-19T05:49:50.709Z,3.38
2022-08-19T05:52:19.016Z,3.70
2022-08-19T05:54:51.047Z,3.42
2022-08-19T05:57:19.596Z,3.58
2022-08-19T05:59:56.724Z,3.35
2022-08-19T06:02:26.910Z,3.53
2022-08-19T06:04:53.461Z,3.60
2022-08-19T06:07:20.487Z,3.17
2022-08-19T06:09:59.003Z,3.58
2022-08-19T06:12:31.522Z,3.58
2022-08-19T06:15:01.091Z,3.63
2022-08-19T06:17:31.106Z,3.28
2022-08-19T06:19:58.996Z,4.00
2022-08-19T06:22:25.505Z,4.05
2022-08-19T06:24:53.657Z,4.20
2022-08-19T06:27:21.203Z,3.80
2022-08-19T06:29:48.104Z,4.30
2022-08-19T06:32:17.313Z,3.90
2022-08-19T06:34:43.935Z,4.05
2022-08-19T06:37:10.398Z,4.35
2022-08-19T06:39:40.019Z,4.32
2022-08-19T06:42:10.982Z,4.13
2022-08-19T06:44:43.243Z,4.60
2022-08-19T06:47:14.936Z,4.18
2022-08-19T06:49:49.908Z,4.40
2022-08-19T06:52:16.963Z,4.50
2022-08-19T06:54:55.347Z,4.43
2022-08-19T06:57:23.416Z,4.80
2022-08-19T06:59:49.901Z,4.68
2022-08-19T07:04:47.998Z,5.00
2022-08-19T07:07:21.850Z,4.47
2022-08-19T07:09:51.565Z,4.95
2022-08-19T07:12:28.099Z,5.35
2022-08-19T07:14:56.137Z,5.70
2022-08-19T07:17:22.593Z,5.53
2022-08-19T07:19:50.466Z,5.60
2022-08-19T07:22:17.267Z,5.05
2022-08-19T07:24:51.214Z,5.65
2022-08-19T07:27:18.224Z,5.40
2022-08-19T07:32:26.798Z,5.28
2022-08-19T07:34:53.548Z,5.43
2022-08-19T07:37:20.036Z,5.95
2022-08-19T07:39:46.557Z,6.15
2022-08-19T07:42:13.585Z,5.65
2022-08-19T07:47:48.968Z,7.05
2022-08-19T07:50:00.328Z,5.90
2022-08-19T07:52:26.807Z,6.57
2022-08-19T07:54:53.351Z,7.35
2022-08-19T07:57:20.040Z,7.55
2022-08-19T07:59:46.646Z,6.85
2022-08-19T08:02:13.141Z,7.68
2022-08-19T08:04:57.841Z,7.32
2022-08-19T08:07:46.133Z,7.60
2022-08-19T08:10:21.010Z,7.13
2022-08-19T08:13:01.808Z,6.68
2022-08-19T08:15:39.970Z,8.35
2022-08-19T08:18:08.588Z,8.15
2022-08-19T08:20:35.781Z,6.95
2022-08-19T08:23:20.922Z,8.18
2022-08-19T08:25:49.280Z,8.40
2022-08-19T08:28:17.606Z,7.93
2022-08-19T08:30:48.351Z,7.75
2022-08-19T08:33:33.259Z,7.63
2022-08-19T08:36:03.823Z,7.70
2022-08-19T08:38:38.373Z,7.70
2022-08-19T08:41:20.015Z,9.15
2022-08-19T08:43:49.007Z,7.72
2022-08-19T08:46:30.536Z,7.70
2022-08-19T08:49:09.690Z,8.82
2022-08-19T08:54:18.570Z,7.65
2022-08-19T08:56:46.797Z,7.82
2022-08-19T08:59:20.152Z,8.18
2022-08-19T09:01:46.781Z,8.38
2022-08-19T09:04:14.289Z,7.93
2022-08-19T09:06:44.026Z,8.35
2022-08-19T09:09:35.813Z,8.02
2022-08-19T09:12:26.972Z,8.18
2022-08-19T09:15:02.209Z,8.65
2022-08-19T09:17:34.647Z,9.20
2022-08-19T09:20:11.975Z,8.98
2022-08-19T09:22:44.927Z,7.88
2022-08-19T09:25:15.904Z,9.30
2022-08-19T09:27:45.201Z,9.18
2022-08-19T09:30:24.807Z,8.50
2022-08-19T09:32:53.842Z,9.52
2022-08-19T09:35:23.316Z,8.98
2022-08-19T09:37:51.243Z,9.18
2022-08-19T09:42:52.736Z,8.70
2022-08-19T09:45:22.557Z,9.30
2022-08-19T09:47:52.244Z,11.30
2022-08-19T09:50:21.720Z,12.00
2022-08-19T09:52:54.157Z,11.18
2022-08-19T09:55:31.741Z,11.52
2022-08-19T09:58:00.913Z,10.98
2022-08-19T10:00:27.816Z,12.20
2022-08-19T10:02:55.321Z,12.00
2022-08-19T10:05:42.364Z,11.25
2022-08-19T10:08:13.159Z,11.70
2022-08-19T10:10:43.271Z,12.38
2022-08-19T10:13:09.838Z,11.80
2022-08-19T10:15:45.043Z,12.02
2022-08-19T10:18:15.607Z,12.45
2022-08-19T10:20:42.807Z,12.73
2022-08-19T10:23:10.152Z,13.23
2022-08-19T10:25:36.977Z,13.20
2022-08-19T10:28:10.559Z,13.48
2022-08-19T10:30:37.865Z,12.50
2022-08-19T10:33:10.804Z,12.98
2022-08-19T10:35:42.614Z,13.20
2022-08-19T10:38:31.751Z,13.05
2022-08-19T10:41:07.529Z,14.07
2022-08-19T10:43:37.013Z,12.32
2022-08-19T10:46:04.805Z,13.30
2022-08-19T10:48:36.203Z,12.52
2022-08-19T10:51:23.067Z,13.82
2022-08-19T10:53:51.527Z,14.00
2022-08-19T10:56:37.411Z,13.65
2022-08-19T10:59:05.438Z,12.93
2022-08-19T11:01:35.019Z,14.32
2022-08-19T11:04:03.286Z,15.10
2022-08-19T11:06:31.966Z,14.43
2022-08-19T11:08:59.023Z,15.30
2022-08-19T11:11:25.570Z,14.57
2022-08-19T11:13:52.296Z,14.70
2022-08-19T11:16:22.532Z,13.55
2022-08-19T11:18:55.162Z,14.25
2022-08-19T11:21:28.428Z,13.73
2022-08-19T11:23:58.697Z,13.45
2022-08-19T11:26:26.650Z,13.95
2022-08-19T11:28:55.558Z,14.63
2022-08-19T11:31:28.973Z,14.68
2022-08-19T11:33:58.337Z,13.93
2022-08-19T11:36:24.905Z,13.70
2022-08-19T11:38:51.684Z,13.30
2022-08-19T11:41:20.158Z,14.18
2022-08-19T11:43:46.739Z,13.23
2022-08-19T11:46:15.745Z,14.90
2022-08-19T11:48:42.385Z,14.38
2022-08-19T11:51:13.002Z,15.40
2022-08-19T11:53:39.768Z,16.05
2022-08-19T11:56:07.884Z,16.90
2022-08-19T11:58:35.153Z,16.75
2022-08-19T12:01:01.894Z,15.73
2022-08-19T12:03:28.988Z,15.90
2022-08-19T12:05:55.730Z,15.45
2022-08-19T12:08:22.180Z,16.02
2022-08-19T12:10:48.681Z,16.52
2022-08-19T12:13:19.600Z,16.05
2022-08-19T12:15:47.744Z,15.13
2022-08-19T12:18:17.329Z,18.20
2022-08-19T12:20:44.657Z,15.40
2022-08-19T12:23:11.567Z,14.82
2022-08-19T12:25:44.097Z,16.05
2022-08-19T12:28:10.659Z,15.10
2022-08-19T12:30:39.157Z,16.60
2022-08-19T12:33:05.656Z,15.23
2022-08-19T12:35:32.850Z,16.60
2022-08-19T12:38:00.026Z,16.30
2022-08-19T12:40:27.631Z,15.18
2022-08-19T12:42:55.098Z,15.95
2022-08-19T12:45:22.599Z,16.50
2022-08-19T12:47:49.736Z,15.68
2022-08-19T12:50:16.456Z,14.65
2022-08-19T12:52:43.477Z,15.38
2022-08-19T12:55:12.015Z,16.20
2022-08-19T12:57:39.259Z,15.18
2022-08-19T13:00:14.236Z,17.95
2022-08-19T13:02:42.782Z,17.13
2022-08-19T13:05:12.033Z,20.92
2022-08-19T13:07:40.207Z,19.65
2022-08-19T13:10:12.778Z,19.05
2022-08-19T13:12:40.105Z,18.85
2022-08-19T13:15:11.209Z,19.85
2022-08-19T13:17:39.118Z,19.23
2022-08-19T13:20:08.968Z,19.50
2022-08-19T13:22:36.934Z,19.23
2022-08-19T13:25:04.908Z,21.13
2022-08-19T13:27:31.449Z,20.23
2022-08-19T13:30:16.703Z,21.10
2022-08-19T13:33:01.641Z,19.13
2022-08-19T13:35:28.162Z,18.85
2022-08-19T13:37:54.873Z,20.65
2022-08-19T13:40:24.951Z,20.70
2022-08-19T13:42:53.788Z,22.35
2022-08-19T13:45:25.427Z,24.00
2022-08-19T13:47:58.669Z,21.25
2022-08-19T13:50:29.673Z,22.05
2022-08-19T13:52:56.894Z,23.55
2022-08-19T13:55:25.059Z,23.25
2022-08-19T13:57:54.330Z,21.63
2022-08-19T14:00:23.135Z,23.50
2022-08-19T14:02:53.345Z,22.77
2022-08-19T14:05:21.119Z,24.45
2022-08-19T14:07:49.037Z,21.40
2022-08-19T14:10:17.007Z,20.70
2022-08-19T14:12:43.526Z,20.45
2022-08-19T14:15:11.886Z,17.63
2022-08-19T14:17:40.346Z,18.48
2022-08-19T14:20:10.447Z,18.73
2022-08-19T14:22:40.082Z,18.52
2022-08-19T14:25:09.042Z,19.50
2022-08-19T14:27:39.715Z,15.73
2022-08-19T14:30:08.851Z,16.25
2022-08-19T14:32:35.789Z,18.95
2022-08-19T14:35:03.178Z,15.45
2022-08-19T14:37:29.914Z,16.55
2022-08-19T14:39:56.717Z,15.88
2022-08-19T14:42:23.213Z,15.27
2022-08-19T14:44:49.732Z,16.63
2022-08-19T14:47:16.179Z,15.05
2022-08-19T14:49:44.846Z,17.20
2022-08-19T14:52:14.868Z,15.90
2022-08-19T14:54:41.539Z,14.82
2022-08-19T14:57:08.120Z,13.82
2022-08-19T14:59:36.126Z,13.32
2022-08-19T15:02:34.107Z,13.20
2022-08-19T15:04:58.025Z,10.32
2022-08-19T15:07:25.707Z,10.60
2022-08-19T15:09:55.885Z,9.32
2022-08-19T15:12:23.480Z,9.25
2022-08-19T15:14:52.940Z,9.35
2022-08-19T15:17:25.807Z,9.93
2022-08-19T15:20:10.870Z,11.13
2022-08-19T15:22:37.361Z,10.95
2022-08-19T15:25:05.962Z,13.82
2022-08-19T15:27:32.990Z,13.20
2022-08-19T15:30:01.381Z,12.25
2022-08-19T15:32:29.063Z,11.60
2022-08-19T15:34:56.001Z,12.80
2022-08-19T15:37:24.012Z,13.15
2022-08-19T15:39:51.229Z,13.18
2022-08-19T15:42:29.558Z,13.00
2022-08-19T15:44:56.854Z,14.00
2022-08-19T15:47:35.090Z,14.90
2022-08-19T15:50:16.768Z,16.08
2022-08-19T15:52:49.725Z,15.63
2022-08-19T15:55:31.353Z,15.10
2022-08-19T15:58:28.661Z,15.55
2022-08-19T16:01:20.481Z,15.55
2022-08-19T16:04:14.199Z,18.05
2022-08-19T16:06:43.492Z,15.77
2022-08-19T16:09:09.931Z,16.50
2022-08-19T16:11:39.324Z,17.33
2022-08-19T16:14:09.224Z,17.45
2022-08-19T16:16:36.491Z,18.63
2022-08-19T16:19:10.586Z,16.92
2022-08-19T16:21:41.613Z,16.63
2022-08-19T16:24:12.004Z,16.23
2022-08-19T16:26:39.854Z,17.52
2022-08-19T16:29:09.130Z,18.10
2022-08-19T16:31:40.303Z,18.10
2022-08-19T16:34:06.882Z,19.02
2022-08-19T16:36:33.851Z,18.67
2022-08-19T16:39:00.756Z,18.20
2022-08-19T16:41:28.003Z,19.02
2022-08-19T16:43:55.284Z,19.10
2022-08-19T16:46:23.338Z,18.30
2022-08-19T16:48:54.599Z,19.38
2022-08-19T16:51:23.481Z,19.27
2022-08-19T16:53:53.357Z,20.30
2022-08-19T16:56:21.394Z,18.88
2022-08-19T16:58:50.449Z,20.73
2022-08-19T17:01:18.051Z,19.92
2022-08-19T17:03:44.569Z,21.55
2022-08-19T17:06:26.042Z,20.48
2022-08-19T17:08:55.176Z,21.25
2022-08-19T17:11:24.317Z,21.27
2022-08-19T17:13:51.641Z,20.92
2022-08-19T17:16:24.938Z,21.20
2022-08-19T17:18:56.693Z,21.55
2022-08-19T17:21:27.887Z,20.40
2022-08-19T17:23:56.160Z,20.55
2022-08-19T17:26:23.544Z,21.65
2022-08-19T17:28:52.442Z,20.23
2022-08-19T17:31:23.120Z,21.40
2022-08-19T17:33:50.691Z,20.60
2022-08-19T17:36:19.821Z,21.10
2022-08-19T17:38:46.287Z,21.00
2022-08-19T17:41:12.793Z,20.55
2022-08-19T17:43:43.371Z,21.35
2022-08-19T17:46:13.041Z,21.15
2022-08-19T17:48:47.420Z,20.83
2022-08-19T17:51:22.287Z,19.27
2022-08-19T17:53:51.715Z,20.30
2022-08-19T17:56:19.206Z,21.80
2022-08-19T17:58:53.807Z,24.98
2022-08-19T18:01:26.160Z,22.58
2022-08-19T18:03:55.228Z,21.55
2022-08-19T18:06:21.699Z,19.92
2022-08-19T18:08:49.142Z,21.23
2022-08-19T18:11:16.756Z,21.23
2022-08-19T18:13:43.433Z,19.88
2022-08-19T18:16:12.191Z,20.33
2022-08-19T18:18:40.604Z,20.05
2022-08-19T18:21:08.437Z,17.92
2022-08-19T18:23:45.421Z,19.15
2022-08-19T18:26:12.835Z,20.90
2022-08-19T18:28:39.887Z,21.70
2022-08-19T18:31:17.395Z,20.58
2022-08-19T18:33:45.194Z,18.10
2022-08-19T18:36:12.223Z,21.38
2022-08-19T18:38:57.620Z,21.25
2022-08-19T18:41:43.375Z,21.33
2022-08-19T18:44:28.380Z,21.08
2022-08-19T18:47:14.018Z,20.92
2022-08-19T18:49:40.565Z,27.00
2022-08-19T18:52:07.501Z,23.48
2022-08-19T18:54:34.488Z,20.08
2022-08-19T18:57:01.284Z,22.40
2022-08-19T18:59:30.253Z,21.38
2022-08-19T19:01:59.176Z,20.92
2022-08-19T19:04:30.097Z,21.73
2022-08-19T19:06:56.664Z,21.02
2022-08-19T19:09:24.357Z,21.77
2022-08-19T19:11:57.876Z,20.08
2022-08-19T19:14:48.736Z,21.23
2022-08-19T19:17:16.402Z,20.02
2022-08-19T19:19:44.017Z,21.30
2022-08-19T19:22:14.333Z,21.30
2022-08-19T19:24:45.242Z,23.10
2022-08-19T19:27:13.907Z,22.70
2022-08-19T19:29:42.124Z,24.02
2022-08-19T19:32:16.544Z,23.83
2022-08-19T19:34:43.273Z,27.08
2022-08-19T19:37:09.806Z,25.20
2022-08-19T19:39:45.705Z,26.50
2022-08-19T19:42:21.321Z,30.90
2022-08-19T19:44:50.570Z,26.45
2022-08-19T19:47:18.845Z,26.08
2022-08-19T19:50:12.801Z,27.90
2022-08-19T19:52:33.579Z,26.92
2022-08-19T19:55:01.291Z,27.80
2022-08-19T19:57:29.340Z,28.50
2022-08-19T19:59:56.265Z,28.05
2022-08-19T20:02:22.915Z,28.42
2022-08-19T20:04:50.475Z,28.08
2022-08-19T20:07:17.633Z,27.55
2022-08-19T20:09:59.142Z,28.55
2022-08-19T20:12:26.637Z,28.80
2022-08-19T20:14:53.093Z,32.22
2022-08-19T20:17:20.639Z,34.88
2022-08-19T20:19:47.789Z,36.45
2022-08-19T20:22:14.674Z,38.00
2022-08-19T20:24:42.630Z,35.75
2022-08-19T20:27:10.194Z,38.67
2022-08-19T20:29:41.511Z,39.03
2022-08-19T20:32:10.639Z,42.75
2022-08-19T20:34:37.457Z,45.30
2022-08-19T20:37:04.681Z,44.00
2022-08-19T20:39:31.182Z,45.08
2022-08-19T20:41:57.638Z,44.10
2022-08-19T20:44:25.407Z,41.45
2022-08-19T20:46:54.570Z,41.22
2022-08-19T20:49:23.038Z,37.40
2022-08-19T20:51:54.536Z,34.67
2022-08-19T20:54:21.361Z,36.15
2022-08-19T20:56:47.817Z,33.25
2022-08-19T20:59:14.435Z,33.88
2022-08-19T21:01:40.876Z,30.35
2022-08-19T21:04:07.338Z,28.98
2022-08-19T21:06:34.089Z,28.40
2022-08-19T21:09:00.735Z,27.90
2022-08-19T21:11:27.202Z,29.27
2022-08-19T21:13:53.757Z,27.35
2022-08-19T21:16:20.276Z,28.02
2022-08-19T21:18:46.727Z,27.17
2022-08-19T21:21:13.258Z,27.30
2022-08-19T21:23:40.290Z,26.88
2022-08-19T21:26:08.354Z,25.35
2022-08-19T21:28:36.430Z,26.50
2022-08-19T21:31:05.323Z,26.50
2022-08-19T21:33:32.886Z,26.40
2022-08-19T21:36:00.162Z,25.80
2022-08-19T21:38:27.490Z,24.25
2022-08-19T21:40:54.315Z,24.90
2022-08-19T21:43:20.959Z,23.10
2022-08-19T21:45:48.373Z,24.70
2022-08-19T21:48:15.211Z,23.20
2022-08-19T21:50:43.541Z,23.30
2022-08-19T21:53:17.338Z,21.95
2022-08-19T21:55:46.101Z,20.42
2022-08-19T21:58:19.602Z,22.50
2022-08-19T22:00:54.929Z,22.10
2022-08-19T22:03:22.041Z,21.30
2022-08-19T22:05:48.514Z,22.38
2022-08-19T22:08:15.271Z,22.25
2022-08-19T22:10:41.845Z,21.40
2022-08-19T22:13:09.464Z,21.02
2022-08-19T22:15:35.985Z,21.67
2022-08-19T22:18:02.720Z,22.50
2022-08-19T22:20:31.418Z,21.92
2022-08-19T22:23:04.398Z,22.40
2022-08-19T22:25:37.005Z,20.30
2022-08-19T22:28:07.122Z,21.27
2022-08-19T22:30:39.901Z,21.45
2022-08-19T22:33:16.832Z,21.90
2022-08-19T22:35:45.010Z,22.23
2022-08-19T22:38:12.710Z,22.88
2022-08-19T22:40:47.241Z,21.95
2022-08-19T22:43:19.759Z,21.45
2022-08-19T22:45:47.718Z,21.60
2022-08-19T22:48:17.368Z,20.92
2022-08-19T22:51:05.211Z,21.98
2022-08-19T22:53:36.796Z,22.90
2022-08-19T22:56:06.565Z,22.50
2022-08-19T22:58:33.069Z,21.13
2022-08-19T23:00:59.796Z,20.10
2022-08-19T23:03:26.750Z,21.52
2022-08-19T23:05:53.829Z,19.90
2022-08-19T23:08:20.269Z,20.65
2022-08-19T23:10:49.645Z,20.50
2022-08-19T23:13:17.430Z,19.13
2022-08-19T23:15:46.289Z,18.45
2022-08-19T23:18:14.135Z,18.73
2022-08-19T23:20:43.308Z,19.05
2022-08-19T23:23:18.848Z,19.35
2022-08-19T23:25:47.488Z,19.00
2022-08-19T23:28:32.839Z,19.80
2022-08-19T23:30:59.291Z,19.15
2022-08-19T23:33:46.623Z,19.10
2022-08-19T23:36:18.703Z,19.25
2022-08-19T23:38:48.027Z,18.83
2022-08-19T23:41:16.679Z,19.15
2022-08-19T23:43:43.409Z,18.92
2022-08-19T23:46:12.753Z,18.98
2022-08-19T23:48:40.031Z,19.65
2022-08-19T23:51:09.383Z,19.35
2022-08-19T23:53:37.438Z,19.67
2022-08-19T23:56:05.009Z,18.25
2022-08-19T23:58:31.951Z,19.30
